sensor_id;sensor_type;location;lat;lon;timestamp;temperature;humidity
64111;DHT22;50401;48.188;11.566;2023-04-01T00:01:56;8.88;72.66
64111;DHT22;50401;48.188;11.566;2023-04-01T00:04:23;8.85;72.83
64111;DHT22;50401;48.188;11.566;2023-04-01T00:06:48;8.93;72.74
64111;DHT22;50401;48.188;11.566;2023-04-01T00:09:14;8.98;72.84
64111;DHT22;50401;48.188;11.566;2023-04-01T00:11:40;9.01;72.86
64111;DHT22;50401;48.188;11.566;2023-04-01T00:14:06;8.87;73.12
64111;DHT22;50401;48.188;11.566;2023-04-01T00:16:32;8.87;73.35
64111;DHT22;50401;48.188;11.566;2023-04-01T00:18:57;8.87;73.24
64111;DHT22;50401;48.188;11.566;2023-04-01T00:21:23;8.81;73.36
64111;DHT22;50401;48.188;11.566;2023-04-01T00:23:49;8.80;73.21
64111;DHT22;50401;48.188;11.566;2023-04-01T00:26:15;8.93;73.06
64111;DHT22;50401;48.188;11.566;2023-04-01T00:28:44;8.88;72.98
64111;DHT22;50401;48.188;11.566;2023-04-01T00:31:10;8.80;73.22
64111;DHT22;50401;48.188;11.566;2023-04-01T00:33:36;8.80;73.28
64111;DHT22;50401;48.188;11.566;2023-04-01T00:36:21;8.88;73.18
64111;DHT22;50401;48.188;11.566;2023-04-01T00:38:46;8.81;73.16
64111;DHT22;50401;48.188;11.566;2023-04-01T00:41:14;8.89;73.05
64111;DHT22;50401;48.188;11.566;2023-04-01T00:43:42;8.73;73.27
64111;DHT22;50401;48.188;11.566;2023-04-01T00:46:08;8.71;73.34
64111;DHT22;50401;48.188;11.566;2023-04-01T00:48:36;8.65;73.55
64111;DHT22;50401;48.188;11.566;2023-04-01T00:51:06;8.70;73.64
64111;DHT22;50401;48.188;11.566;2023-04-01T00:53:34;8.71;73.48
64111;DHT22;50401;48.188;11.566;2023-04-01T00:56:06;8.70;73.69
64111;DHT22;50401;48.188;11.566;2023-04-01T00:58:35;8.78;73.61
64111;DHT22;50401;48.188;11.566;2023-04-01T01:01:02;8.73;73.59
64111;DHT22;50401;48.188;11.566;2023-04-01T01:03:28;8.78;73.57
64111;DHT22;50401;48.188;11.566;2023-04-01T01:19:57;8.73;73.68
64111;DHT22;50401;48.188;11.566;2023-04-01T01:22:39;8.71;74.13
64111;DHT22;50401;48.188;11.566;2023-04-01T01:31:18;8.71;75.32
64111;DHT22;50401;48.188;11.566;2023-04-01T01:36:31;8.73;74.88
64111;DHT22;50401;48.188;11.566;2023-04-01T01:38:57;8.74;74.69
64111;DHT22;50401;48.188;11.566;2023-04-01T01:41:25;8.65;74.38
64111;DHT22;50401;48.188;11.566;2023-04-01T01:43:53;8.65;74.76
64111;DHT22;50401;48.188;11.566;2023-04-01T01:46:22;8.70;74.48
64111;DHT22;50401;48.188;11.566;2023-04-01T01:48:49;8.68;74.30
64111;DHT22;50401;48.188;11.566;2023-04-01T01:51:16;8.61;74.36
64111;DHT22;50401;48.188;11.566;2023-04-01T01:53:42;8.63;74.43
64111;DHT22;50401;48.188;11.566;2023-04-01T01:56:10;8.60;74.38
64111;DHT22;50401;48.188;11.566;2023-04-01T01:58:39;8.64;74.28
64111;DHT22;50401;48.188;11.566;2023-04-01T02:01:15;8.71;74.03
64111;DHT22;50401;48.188;11.566;2023-04-01T02:03:42;8.68;73.82
64111;DHT22;50401;48.188;11.566;2023-04-01T02:06:14;8.65;73.62
64111;DHT22;50401;48.188;11.566;2023-04-01T02:08:49;8.77;73.46
64111;DHT22;50401;48.188;11.566;2023-04-01T02:11:19;8.68;73.43
64111;DHT22;50401;48.188;11.566;2023-04-01T02:13:50;8.60;73.49
64111;DHT22;50401;48.188;11.566;2023-04-01T02:19:03;8.73;73.24
64111;DHT22;50401;48.188;11.566;2023-04-01T02:21:33;8.63;73.06
64111;DHT22;50401;48.188;11.566;2023-04-01T02:24:01;8.59;73.28
64111;DHT22;50401;48.188;11.566;2023-04-01T02:26:28;8.54;73.27
64111;DHT22;50401;48.188;11.566;2023-04-01T02:28:54;8.64;73.04
64111;DHT22;50401;48.188;11.566;2023-04-01T02:31:21;8.63;73.04
64111;DHT22;50401;48.188;11.566;2023-04-01T02:33:47;8.65;73.04
64111;DHT22;50401;48.188;11.566;2023-04-01T02:36:13;8.68;72.92
64111;DHT22;50401;48.188;11.566;2023-04-01T02:38:40;8.77;72.88
64111;DHT22;50401;48.188;11.566;2023-04-01T02:41:06;8.74;72.70
64111;DHT22;50401;48.188;11.566;2023-04-01T02:43:32;8.74;72.81
64111;DHT22;50401;48.188;11.566;2023-04-01T02:45:57;8.70;72.94
64111;DHT22;50401;48.188;11.566;2023-04-01T02:48:22;8.67;73.01
64111;DHT22;50401;48.188;11.566;2023-04-01T02:50:48;8.75;72.75
64111;DHT22;50401;48.188;11.566;2023-04-01T02:53:13;8.68;72.92
64111;DHT22;50401;48.188;11.566;2023-04-01T02:55:39;8.63;73.05
64111;DHT22;50401;48.188;11.566;2023-04-01T02:58:04;8.64;73.05
64111;DHT22;50401;48.188;11.566;2023-04-01T03:00:30;8.64;73.16
64111;DHT22;50401;48.188;11.566;2023-04-01T03:02:55;8.57;73.10
64111;DHT22;50401;48.188;11.566;2023-04-01T03:05:22;8.65;72.89
64111;DHT22;50401;48.188;11.566;2023-04-01T03:07:47;8.74;72.86
64111;DHT22;50401;48.188;11.566;2023-04-01T03:10:13;8.75;72.89
64111;DHT22;50401;48.188;11.566;2023-04-01T03:12:39;8.68;73.01
64111;DHT22;50401;48.188;11.566;2023-04-01T03:15:04;8.71;73.01
64111;DHT22;50401;48.188;11.566;2023-04-01T03:17:30;8.74;73.08
64111;DHT22;50401;48.188;11.566;2023-04-01T03:19:55;8.63;73.05
64111;DHT22;50401;48.188;11.566;2023-04-01T03:22:21;8.67;72.98
64111;DHT22;50401;48.188;11.566;2023-04-01T03:24:49;8.74;72.81
64111;DHT22;50401;48.188;11.566;2023-04-01T03:27:15;8.73;72.78
64111;DHT22;50401;48.188;11.566;2023-04-01T03:29:40;8.67;72.77
64111;DHT22;50401;48.188;11.566;2023-04-01T03:32:06;8.52;73.07
64111;DHT22;50401;48.188;11.566;2023-04-01T03:34:31;8.59;73.08
64111;DHT22;50401;48.188;11.566;2023-04-01T03:36:57;8.49;73.09
64111;DHT22;50401;48.188;11.566;2023-04-01T03:39:23;8.52;72.85
64111;DHT22;50401;48.188;11.566;2023-04-01T03:41:48;8.49;73.06
64111;DHT22;50401;48.188;11.566;2023-04-01T03:44:14;8.42;73.19
64111;DHT22;50401;48.188;11.566;2023-04-01T03:46:39;8.49;72.90
64111;DHT22;50401;48.188;11.566;2023-04-01T03:49:11;8.46;72.97
64111;DHT22;50401;48.188;11.566;2023-04-01T03:51:41;8.45;72.91
64111;DHT22;50401;48.188;11.566;2023-04-01T03:54:08;8.37;73.21
64111;DHT22;50401;48.188;11.566;2023-04-01T03:56:33;8.39;73.28
64111;DHT22;50401;48.188;11.566;2023-04-01T03:59:03;8.42;73.28
64111;DHT22;50401;48.188;11.566;2023-04-01T04:01:28;8.45;73.35
64111;DHT22;50401;48.188;11.566;2023-04-01T04:03:55;8.40;73.41
64111;DHT22;50401;48.188;11.566;2023-04-01T04:06:21;8.46;73.39
64111;DHT22;50401;48.188;11.566;2023-04-01T04:08:47;8.40;73.40
64111;DHT22;50401;48.188;11.566;2023-04-01T04:11:13;8.28;73.88
64111;DHT22;50401;48.188;11.566;2023-04-01T04:13:39;8.28;74.02
64111;DHT22;50401;48.188;11.566;2023-04-01T04:16:04;8.32;74.04
64111;DHT22;50401;48.188;11.566;2023-04-01T04:18:30;8.24;74.12
64111;DHT22;50401;48.188;11.566;2023-04-01T04:20:55;8.33;74.10
64111;DHT22;50401;48.188;11.566;2023-04-01T04:23:21;8.33;74.01
64111;DHT22;50401;48.188;11.566;2023-04-01T04:25:58;8.39;74.08
64111;DHT22;50401;48.188;11.566;2023-04-01T04:28:26;8.37;74.06
64111;DHT22;50401;48.188;11.566;2023-04-01T04:30:52;8.45;74.10
64111;DHT22;50401;48.188;11.566;2023-04-01T04:33:18;8.43;74.08
64111;DHT22;50401;48.188;11.566;2023-04-01T04:35:43;8.42;74.13
64111;DHT22;50401;48.188;11.566;2023-04-01T04:38:09;8.39;74.20
64111;DHT22;50401;48.188;11.566;2023-04-01T04:40:38;8.40;74.13
64111;DHT22;50401;48.188;11.566;2023-04-01T04:43:04;8.39;74.35
64111;DHT22;50401;48.188;11.566;2023-04-01T04:45:30;8.40;74.20
64111;DHT22;50401;48.188;11.566;2023-04-01T04:47:55;8.40;74.21
64111;DHT22;50401;48.188;11.566;2023-04-01T04:50:21;8.40;74.25
64111;DHT22;50401;48.188;11.566;2023-04-01T04:52:46;8.47;74.34
64111;DHT22;50401;48.188;11.566;2023-04-01T04:55:12;8.42;74.02
64111;DHT22;50401;48.188;11.566;2023-04-01T04:57:37;8.37;74.06
64111;DHT22;50401;48.188;11.566;2023-04-01T05:00:03;8.42;73.99
64111;DHT22;50401;48.188;11.566;2023-04-01T05:02:29;8.50;73.86
64111;DHT22;50401;48.188;11.566;2023-04-01T05:04:54;8.52;73.88
64111;DHT22;50401;48.188;11.566;2023-04-01T05:07:20;8.59;73.73
64111;DHT22;50401;48.188;11.566;2023-04-01T05:09:45;8.57;73.63
64111;DHT22;50401;48.188;11.566;2023-04-01T05:12:12;8.65;73.45
64111;DHT22;50401;48.188;11.566;2023-04-01T05:14:38;8.63;73.32
64111;DHT22;50401;48.188;11.566;2023-04-01T05:17:04;8.70;73.15
64111;DHT22;50401;48.188;11.566;2023-04-01T05:19:29;8.61;73.17
64111;DHT22;50401;48.188;11.566;2023-04-01T05:21:54;8.70;73.04
64111;DHT22;50401;48.188;11.566;2023-04-01T05:24:20;8.71;72.88
64111;DHT22;50401;48.188;11.566;2023-04-01T05:26:45;8.74;72.89
64111;DHT22;50401;48.188;11.566;2023-04-01T05:29:10;8.74;72.73
64111;DHT22;50401;48.188;11.566;2023-04-01T05:31:36;8.85;72.18
64111;DHT22;50401;48.188;11.566;2023-04-01T05:34:01;8.91;71.91
64111;DHT22;50401;48.188;11.566;2023-04-01T05:36:27;8.93;71.80
64111;DHT22;50401;48.188;11.566;2023-04-01T05:38:55;9.13;71.44
64111;DHT22;50401;48.188;11.566;2023-04-01T05:41:21;9.15;71.16
64111;DHT22;50401;48.188;11.566;2023-04-01T05:43:47;9.13;70.88
64111;DHT22;50401;48.188;11.566;2023-04-01T05:46:12;9.23;70.89
64111;DHT22;50401;48.188;11.566;2023-04-01T05:48:38;9.29;70.46
64111;DHT22;50401;48.188;11.566;2023-04-01T05:51:04;9.44;70.26
64111;DHT22;50401;48.188;11.566;2023-04-01T05:53:30;9.58;69.81
64111;DHT22;50401;48.188;11.566;2023-04-01T05:55:55;9.54;69.67
64111;DHT22;50401;48.188;11.566;2023-04-01T05:58:21;9.61;69.16
64111;DHT22;50401;48.188;11.566;2023-04-01T06:00:46;9.65;69.05
64111;DHT22;50401;48.188;11.566;2023-04-01T06:03:11;9.67;68.83
64111;DHT22;50401;48.188;11.566;2023-04-01T06:05:42;9.75;68.64
64111;DHT22;50401;48.188;11.566;2023-04-01T06:08:16;9.89;68.52
64111;DHT22;50401;48.188;11.566;2023-04-01T06:11:01;9.91;68.41
64111;DHT22;50401;48.188;11.566;2023-04-01T06:13:41;9.92;68.09
64111;DHT22;50401;48.188;11.566;2023-04-01T06:16:16;9.95;67.83
64111;DHT22;50401;48.188;11.566;2023-04-01T06:19:15;9.93;67.62
64111;DHT22;50401;48.188;11.566;2023-04-01T06:30:57;10.41;66.29
64111;DHT22;50401;48.188;11.566;2023-04-01T06:36:28;10.54;65.90
64111;DHT22;50401;48.188;11.566;2023-04-01T06:41:54;10.48;65.41
64111;DHT22;50401;48.188;11.566;2023-04-01T06:44:50;10.64;64.64
64111;DHT22;50401;48.188;11.566;2023-04-01T06:47:38;10.68;64.57
64111;DHT22;50401;48.188;11.566;2023-04-01T06:53:21;10.82;64.11
64111;DHT22;50401;48.188;11.566;2023-04-01T06:55:55;11.32;62.89
64111;DHT22;50401;48.188;11.566;2023-04-01T06:58:24;11.48;62.06
64111;DHT22;50401;48.188;11.566;2023-04-01T07:00:52;12.16;60.49
64111;DHT22;50401;48.188;11.566;2023-04-01T07:03:29;12.21;59.99
64111;DHT22;50401;48.188;11.566;2023-04-01T07:06:04;12.00;60.78
64111;DHT22;50401;48.188;11.566;2023-04-01T07:08:31;12.42;59.93
64111;DHT22;50401;48.188;11.566;2023-04-01T07:11:02;12.37;59.64
64111;DHT22;50401;48.188;11.566;2023-04-01T07:13:36;11.87;60.42
64111;DHT22;50401;48.188;11.566;2023-04-01T07:16:26;11.45;61.47
64111;DHT22;50401;48.188;11.566;2023-04-01T07:19:03;11.46;61.47
64111;DHT22;50401;48.188;11.566;2023-04-01T07:21:41;12.73;59.42
64111;DHT22;50401;48.188;11.566;2023-04-01T07:24:23;13.17;57.80
64111;DHT22;50401;48.188;11.566;2023-04-01T07:26:54;14.04;55.03
64111;DHT22;50401;48.188;11.566;2023-04-01T07:29:20;12.76;57.39
64111;DHT22;50401;48.188;11.566;2023-04-01T07:40:07;13.65;55.46
64111;DHT22;50401;48.188;11.566;2023-04-01T07:42:47;13.14;56.80
64111;DHT22;50401;48.188;11.566;2023-04-01T07:45:51;12.72;57.54
64111;DHT22;50401;48.188;11.566;2023-04-01T07:48:48;14.52;53.27
64111;DHT22;50401;48.188;11.566;2023-04-01T07:57:17;12.31;59.05
64111;DHT22;50401;48.188;11.566;2023-04-01T07:59:48;12.46;58.57
64111;DHT22;50401;48.188;11.566;2023-04-01T08:07:39;11.97;59.92
64111;DHT22;50401;48.188;11.566;2023-04-01T08:18:43;11.76;60.56
64111;DHT22;50401;48.188;11.566;2023-04-01T08:23:47;12.04;60.15
64111;DHT22;50401;48.188;11.566;2023-04-01T08:26:17;12.91;57.85
64111;DHT22;50401;48.188;11.566;2023-04-01T08:31:48;13.03;57.22
64111;DHT22;50401;48.188;11.566;2023-04-01T08:34:23;13.74;55.18
64111;DHT22;50401;48.188;11.566;2023-04-01T08:37:17;16.57;48.51
64111;DHT22;50401;48.188;11.566;2023-04-01T08:39:49;18.37;43.24
64111;DHT22;50401;48.188;11.566;2023-04-01T08:42:29;18.30;43.29
64111;DHT22;50401;48.188;11.566;2023-04-01T08:44:59;17.65;45.20
64111;DHT22;50401;48.188;11.566;2023-04-01T08:59:29;15.22;49.33
64111;DHT22;50401;48.188;11.566;2023-04-01T09:02:39;14.17;52.43
64111;DHT22;50401;48.188;11.566;2023-04-01T09:08:38;14.67;51.65
64111;DHT22;50401;48.188;11.566;2023-04-01T09:13:36;15.40;51.10
64111;DHT22;50401;48.188;11.566;2023-04-01T09:16:27;16.34;48.35
64111;DHT22;50401;48.188;11.566;2023-04-01T09:19:17;16.10;48.15
64111;DHT22;50401;48.188;11.566;2023-04-01T09:21:57;15.23;50.06
64111;DHT22;50401;48.188;11.566;2023-04-01T09:27:29;13.49;53.67
64111;DHT22;50401;48.188;11.566;2023-04-01T09:38:29;13.43;54.86
64111;DHT22;50401;48.188;11.566;2023-04-01T09:40:58;13.59;54.68
64111;DHT22;50401;48.188;11.566;2023-04-01T09:46:36;13.85;53.79
64111;DHT22;50401;48.188;11.566;2023-04-01T09:49:20;14.73;51.88
64111;DHT22;50401;48.188;11.566;2023-04-01T09:52:11;14.36;52.09
64111;DHT22;50401;48.188;11.566;2023-04-01T10:02:59;14.05;53.52
64111;DHT22;50401;48.188;11.566;2023-04-01T10:08:39;13.88;53.77
64111;DHT22;50401;48.188;11.566;2023-04-01T10:19:31;13.55;54.85
64111;DHT22;50401;48.188;11.566;2023-04-01T10:22:49;13.63;54.85
64111;DHT22;50401;48.188;11.566;2023-04-01T10:31:41;13.73;55.22
64111;DHT22;50401;48.188;11.566;2023-04-01T10:34:19;13.50;54.35
64111;DHT22;50401;48.188;11.566;2023-04-01T10:36:59;13.41;55.25
64111;DHT22;50401;48.188;11.566;2023-04-01T10:39:34;13.36;55.24
64111;DHT22;50401;48.188;11.566;2023-04-01T10:51:32;13.12;58.16
64111;DHT22;50401;48.188;11.566;2023-04-01T10:59:19;13.17;57.92
64111;DHT22;50401;48.188;11.566;2023-04-01T11:18:56;12.79;61.76
64111;DHT22;50401;48.188;11.566;2023-04-01T11:27:21;13.08;60.87
64111;DHT22;50401;48.188;11.566;2023-04-01T11:41:44;12.04;65.89
64111;DHT22;50401;48.188;11.566;2023-04-01T11:44:17;11.73;67.49
64111;DHT22;50401;48.188;11.566;2023-04-01T11:47:09;11.63;69.59
64111;DHT22;50401;48.188;11.566;2023-04-01T12:12:00;11.04;72.27
64111;DHT22;50401;48.188;11.566;2023-04-01T12:22:36;10.79;72.44
64111;DHT22;50401;48.188;11.566;2023-04-01T12:28:19;10.91;73.06
64111;DHT22;50401;48.188;11.566;2023-04-01T12:30:59;10.93;73.57
64111;DHT22;50401;48.188;11.566;2023-04-01T12:41:33;10.45;72.40
64111;DHT22;50401;48.188;11.566;2023-04-01T12:47:00;10.61;73.32
64111;DHT22;50401;48.188;11.566;2023-04-01T12:55:43;10.40;72.83
64111;DHT22;50401;48.188;11.566;2023-04-01T13:06:44;10.58;72.97
64111;DHT22;50401;48.188;11.566;2023-04-01T13:09:33;10.50;73.12
64111;DHT22;50401;48.188;11.566;2023-04-01T13:12:56;10.55;72.59
64111;DHT22;50401;48.188;11.566;2023-04-01T13:20:32;10.44;71.85
64111;DHT22;50401;48.188;11.566;2023-04-01T13:23:33;10.38;72.35
64111;DHT22;50401;48.188;11.566;2023-04-01T13:26:17;10.24;72.41
64111;DHT22;50401;48.188;11.566;2023-04-01T13:28:52;10.38;73.19
64111;DHT22;50401;48.188;11.566;2023-04-01T13:39:45;10.52;74.00
64111;DHT22;50401;48.188;11.566;2023-04-01T13:42:23;10.45;73.75
64111;DHT22;50401;48.188;11.566;2023-04-01T13:45:20;10.65;73.98
64111;DHT22;50401;48.188;11.566;2023-04-01T13:47:59;10.52;73.91
64111;DHT22;50401;48.188;11.566;2023-04-01T13:56:18;10.40;73.88
64111;DHT22;50401;48.188;11.566;2023-04-01T14:10:39;10.67;73.50
64111;DHT22;50401;48.188;11.566;2023-04-01T14:13:18;10.78;73.25
64111;DHT22;50401;48.188;11.566;2023-04-01T14:19:38;10.92;73.17
64111;DHT22;50401;48.188;11.566;2023-04-01T14:21:50;10.88;73.34
64111;DHT22;50401;48.188;11.566;2023-04-01T14:27:34;10.71;72.34
64111;DHT22;50401;48.188;11.566;2023-04-01T14:36:26;10.51;72.48
64111;DHT22;50401;48.188;11.566;2023-04-01T14:44:49;10.75;72.91
64111;DHT22;50401;48.188;11.566;2023-04-01T14:50:23;10.99;72.83
64111;DHT22;50401;48.188;11.566;2023-04-01T14:55:29;11.04;71.81
64111;DHT22;50401;48.188;11.566;2023-04-01T14:58:07;11.07;72.03
64111;DHT22;50401;48.188;11.566;2023-04-01T15:03:32;10.91;71.61
64111;DHT22;50401;48.188;11.566;2023-04-01T15:17:13;10.96;72.04
64111;DHT22;50401;48.188;11.566;2023-04-01T15:22:37;10.89;72.13
64111;DHT22;50401;48.188;11.566;2023-04-01T15:25:22;10.83;72.09
64111;DHT22;50401;48.188;11.566;2023-04-01T15:33:26;10.88;71.67
64111;DHT22;50401;48.188;11.566;2023-04-01T15:38:48;10.83;72.79
64111;DHT22;50401;48.188;11.566;2023-04-01T15:41:16;10.72;72.46
64111;DHT22;50401;48.188;11.566;2023-04-01T15:43:45;10.69;72.38
64111;DHT22;50401;48.188;11.566;2023-04-01T16:00:13;10.79;70.60
64111;DHT22;50401;48.188;11.566;2023-04-01T16:06:11;10.82;69.48
64111;DHT22;50401;48.188;11.566;2023-04-01T16:22:45;11.00;68.15
64111;DHT22;50401;48.188;11.566;2023-04-01T16:25:29;11.06;67.99
64111;DHT22;50401;48.188;11.566;2023-04-01T16:30:46;10.91;67.77
64111;DHT22;50401;48.188;11.566;2023-04-01T16:33:35;10.76;67.35
64111;DHT22;50401;48.188;11.566;2023-04-01T16:39:06;10.72;67.61
64111;DHT22;50401;48.188;11.566;2023-04-01T16:41:48;10.75;67.70
64111;DHT22;50401;48.188;11.566;2023-04-01T16:44:23;10.75;67.57
64111;DHT22;50401;48.188;11.566;2023-04-01T16:46:53;10.83;67.84
64111;DHT22;50401;48.188;11.566;2023-04-01T16:49:31;10.78;67.81
64111;DHT22;50401;48.188;11.566;2023-04-01T16:52:13;10.72;67.34
64111;DHT22;50401;48.188;11.566;2023-04-01T16:54:59;10.69;66.90
64111;DHT22;50401;48.188;11.566;2023-04-01T16:57:26;10.67;67.10
64111;DHT22;50401;48.188;11.566;2023-04-01T17:00:10;10.73;67.22
64111;DHT22;50401;48.188;11.566;2023-04-01T17:02:47;10.62;66.80
64111;DHT22;50401;48.188;11.566;2023-04-01T17:05:15;10.62;67.01
64111;DHT22;50401;48.188;11.566;2023-04-01T17:13:12;10.51;66.40
64111;DHT22;50401;48.188;11.566;2023-04-01T17:26:42;10.44;66.90
64111;DHT22;50401;48.188;11.566;2023-04-01T17:35:16;10.44;65.85
64111;DHT22;50401;48.188;11.566;2023-04-01T17:43:44;10.43;65.91
64111;DHT22;50401;48.188;11.566;2023-04-01T17:54:52;10.36;66.39
64111;DHT22;50401;48.188;11.566;2023-04-01T18:03:12;10.33;66.02
64111;DHT22;50401;48.188;11.566;2023-04-01T18:06:03;10.32;66.04
64111;DHT22;50401;48.188;11.566;2023-04-01T18:25:38;10.36;65.91
64111;DHT22;50401;48.188;11.566;2023-04-01T18:30:32;10.34;66.25
64111;DHT22;50401;48.188;11.566;2023-04-01T18:33:04;10.36;67.32
64111;DHT22;50401;48.188;11.566;2023-04-01T18:35:48;10.36;67.76
64111;DHT22;50401;48.188;11.566;2023-04-01T18:38:29;10.30;67.94
64111;DHT22;50401;48.188;11.566;2023-04-01T18:41:14;10.37;68.23
64111;DHT22;50401;48.188;11.566;2023-04-01T18:51:47;10.14;67.98
64111;DHT22;50401;48.188;11.566;2023-04-01T18:54:42;10.14;68.31
64111;DHT22;50401;48.188;11.566;2023-04-01T18:57:13;10.10;68.32
64111;DHT22;50401;48.188;11.566;2023-04-01T18:59:51;10.03;68.42
64111;DHT22;50401;48.188;11.566;2023-04-01T19:02:44;10.14;68.81
64111;DHT22;50401;48.188;11.566;2023-04-01T19:05:19;10.20;69.03
64111;DHT22;50401;48.188;11.566;2023-04-01T19:07:53;10.19;69.12
64111;DHT22;50401;48.188;11.566;2023-04-01T19:15:52;10.06;69.90
64111;DHT22;50401;48.188;11.566;2023-04-01T19:21:07;10.05;69.80
64111;DHT22;50401;48.188;11.566;2023-04-01T19:26:13;10.00;70.31
64111;DHT22;50401;48.188;11.566;2023-04-01T19:28:58;9.91;70.48
64111;DHT22;50401;48.188;11.566;2023-04-01T19:37:02;9.86;71.26
64111;DHT22;50401;48.188;11.566;2023-04-01T19:39:39;9.93;70.89
64111;DHT22;50401;48.188;11.566;2023-04-01T19:42:32;9.89;71.06
64111;DHT22;50401;48.188;11.566;2023-04-01T19:53:37;9.85;71.34
64111;DHT22;50401;48.188;11.566;2023-04-01T19:59:09;9.82;71.11
64111;DHT22;50401;48.188;11.566;2023-04-01T20:04:43;9.81;70.90
64111;DHT22;50401;48.188;11.566;2023-04-01T20:14:49;9.59;71.30
64111;DHT22;50401;48.188;11.566;2023-04-01T20:20:28;9.71;70.78
64111;DHT22;50401;48.188;11.566;2023-04-01T20:25:43;9.65;70.94
64111;DHT22;50401;48.188;11.566;2023-04-01T20:28:28;9.59;71.18
64111;DHT22;50401;48.188;11.566;2023-04-01T20:34:20;9.52;71.25
64111;DHT22;50401;48.188;11.566;2023-04-01T20:36:58;9.57;71.28
64111;DHT22;50401;48.188;11.566;2023-04-01T20:39:39;9.48;71.25
64111;DHT22;50401;48.188;11.566;2023-04-01T20:51:06;9.64;70.96
64111;DHT22;50401;48.188;11.566;2023-04-01T20:54:02;9.70;70.73
64111;DHT22;50401;48.188;11.566;2023-04-01T20:59:46;9.67;70.80
64111;DHT22;50401;48.188;11.566;2023-04-01T21:02:32;9.62;70.94
64111;DHT22;50401;48.188;11.566;2023-04-01T21:05:27;9.65;71.19
64111;DHT22;50401;48.188;11.566;2023-04-01T21:22:40;9.50;71.27
64111;DHT22;50401;48.188;11.566;2023-04-01T21:28:34;9.40;71.29
64111;DHT22;50401;48.188;11.566;2023-04-01T21:39:52;9.34;71.69
64111;DHT22;50401;48.188;11.566;2023-04-01T21:42:50;9.32;71.69
64111;DHT22;50401;48.188;11.566;2023-04-01T21:57:07;9.34;71.63
64111;DHT22;50401;48.188;11.566;2023-04-01T22:00:06;9.37;71.65
64111;DHT22;50401;48.188;11.566;2023-04-01T22:11:39;9.44;71.49
64111;DHT22;50401;48.188;11.566;2023-04-01T22:14:21;9.46;71.32
64111;DHT22;50401;48.188;11.566;2023-04-01T22:19:38;9.43;71.41
64111;DHT22;50401;48.188;11.566;2023-04-01T22:22:49;9.34;71.68
64111;DHT22;50401;48.188;11.566;2023-04-01T22:28:09;9.33;71.78
64111;DHT22;50401;48.188;11.566;2023-04-01T22:30:43;9.37;71.75
64111;DHT22;50401;48.188;11.566;2023-04-01T22:33:21;9.30;71.85
64111;DHT22;50401;48.188;11.566;2023-04-01T22:43:44;9.27;72.00
64111;DHT22;50401;48.188;11.566;2023-04-01T22:57:03;9.30;73.05
64111;DHT22;50401;48.188;11.566;2023-04-01T22:59:48;9.29;72.76
64111;DHT22;50401;48.188;11.566;2023-04-01T23:02:17;9.29;72.55
64111;DHT22;50401;48.188;11.566;2023-04-01T23:04:49;9.29;72.48
64111;DHT22;50401;48.188;11.566;2023-04-01T23:11:13;9.34;72.27
64111;DHT22;50401;48.188;11.566;2023-04-01T23:13:24;9.30;72.16
64111;DHT22;50401;48.188;11.566;2023-04-01T23:15:55;9.27;72.33
64111;DHT22;50401;48.188;11.566;2023-04-01T23:18:25;9.23;72.05
64111;DHT22;50401;48.188;11.566;2023-04-01T23:21:23;9.22;72.30
64111;DHT22;50401;48.188;11.566;2023-04-01T23:29:14;9.19;72.05
64111;DHT22;50401;48.188;11.566;2023-04-01T23:31:49;9.15;72.11
64111;DHT22;50401;48.188;11.566;2023-04-01T23:34:24;9.19;72.26
64111;DHT22;50401;48.188;11.566;2023-04-01T23:36:53;9.22;72.06
64111;DHT22;50401;48.188;11.566;2023-04-01T23:42:00;9.18;71.95
64111;DHT22;50401;48.188;11.566;2023-04-01T23:44:27;9.20;71.89
64111;DHT22;50401;48.188;11.566;2023-04-01T23:46:54;9.23;71.91
64111;DHT22;50401;48.188;11.566;2023-04-01T23:52:16;9.20;71.95
64111;DHT22;50401;48.188;11.566;2023-04-01T23:55:12;9.13;71.94
64111;DHT22;50401;48.188;11.566;2023-04-01T23:57:38;9.13;72.00
